Time;durP1;ratioP1;P1;durP2;ratioP2;P2;SDS_P1;SDS_P2;PMS_P1;PMS_P2;Temp;Humidity;BMP_temperature;BMP_pressure;BME280_temperature;BME280_humidity;BME280_pressure;Samples;Min_cycle;Max_cycle;Signal;HPM_P1;HPM_P2
2022/02/23 00:00:12;;;;;;;11.88;3.83;;;;;;;;;;5069080;28;20193;-79
2022/02/23 00:02:39;;;;;;;11.20;3.05;;;;;;;;;;5065436;28;20200;-78
2022/02/23 00:05:07;;;;;;;10.65;2.70;;;;;;;;;;5068240;28;20224;-77
2022/02/23 00:07:34;;;;;;;10.45;3.63;;;;;;;;;;5062555;28;20222;-78
2022/02/23 00:10:01;;;;;;;8.48;3.72;;;;;;;;;;5050839;28;20574;-78
2022/02/23 00:12:30;;;;;;;10.83;3.07;;;;;;;;;;5050008;28;20207;-79
2022/02/23 00:14:58;;;;;;;8.07;3.20;;;;;;;;;;5067476;28;20996;-77
2022/02/23 00:17:25;;;;;;;6.22;2.75;;;;;;;;;;5052305;28;20570;-78
2022/02/23 00:19:53;;;;;;;7.57;2.80;;;;;;;;;;5051998;28;20198;-80
2022/02/23 00:22:20;;;;;;;8.48;3.10;;;;;;;;;;5062779;28;20285;-78
2022/02/23 00:24:47;;;;;;;11.27;2.78;;;;;;;;;;5067559;28;20233;-80
2022/02/23 00:27:14;;;;;;;10.07;3.50;;;;;;;;;;5067651;28;20521;-78
2022/02/23 00:29:43;;;;;;;13.13;3.90;;;;;;;;;;5049800;28;20832;-78
2022/02/23 00:32:10;;;;;;;9.52;3.40;;;;;;;;;;5050453;28;20636;-77
2022/02/23 00:34:37;;;;;;;11.60;4.03;;;;;;;;;;5050290;28;20214;-78
2022/02/23 00:37:05;;;;;;;14.43;3.30;;;;;;;;;;5050555;28;20198;-76
2022/02/23 00:39:35;;;;;;;7.95;3.40;;;;;;;;;;5062635;28;20194;-77
2022/02/23 00:42:02;;;;;;;9.57;2.78;;;;;;;;;;5067165;28;20204;-79
2022/02/23 00:44:29;;;;;;;15.77;4.35;;;;;;;;;;5068705;28;20220;-81
2022/02/23 00:46:59;;;;;;;9.35;2.80;;;;;;;;;;5066011;28;20404;-78
2022/02/23 00:49:26;;;;;;;8.70;3.25;;;;;;;;;;5066782;28;20555;-81
2022/02/23 00:51:54;;;;;;;10.65;3.13;;;;;;;;;;5069884;28;20198;-78
2022/02/23 00:54:21;;;;;;;9.77;2.88;;;;;;;;;;5060957;28;20210;-77
2022/02/23 00:56:54;;;;;;;8.00;2.95;;;;;;;;;;5066238;28;20225;-80
2022/02/23 00:59:21;;;;;;;16.30;3.05;;;;;;;;;;5066696;28;20198;-77
2022/02/23 01:01:48;;;;;;;12.13;2.75;;;;;;;;;;5068405;28;20193;-80
2022/02/23 01:04:17;;;;;;;10.05;4.45;;;;;;;;;;5067886;28;20217;-80
2022/02/23 01:06:44;;;;;;;7.82;3.17;;;;;;;;;;5061237;28;20218;-77
2022/02/23 01:09:11;;;;;;;7.03;2.75;;;;;;;;;;5069993;28;20202;-77
2022/02/23 01:11:40;;;;;;;7.00;2.67;;;;;;;;;;5067471;28;20205;-79
2022/02/23 01:14:07;;;;;;;12.25;3.80;;;;;;;;;;5068530;28;20613;-77
2022/02/23 01:16:34;;;;;;;8.70;3.00;;;;;;;;;;5064870;28;20554;-79
2022/02/23 01:19:02;;;;;;;11.68;2.70;;;;;;;;;;5066919;28;20213;-78
2022/02/23 01:21:30;;;;;;;7.70;2.40;;;;;;;;;;5065899;28;20194;-77
2022/02/23 01:23:57;;;;;;;10.27;3.08;;;;;;;;;;5066675;28;20228;-78
2022/02/23 01:26:25;;;;;;;7.90;2.50;;;;;;;;;;5069892;28;20186;-78
2022/02/23 01:28:52;;;;;;;9.52;3.22;;;;;;;;;;5069833;28;20194;-77
2022/02/23 01:31:19;;;;;;;8.30;2.50;;;;;;;;;;5068653;28;20190;-77
2022/02/23 01:33:46;;;;;;;4.93;2.60;;;;;;;;;;5070488;28;20200;-77
2022/02/23 01:36:13;;;;;;;15.40;3.08;;;;;;;;;;5071544;28;20224;-77
2022/02/23 01:38:42;;;;;;;9.77;2.90;;;;;;;;;;5073062;28;20213;-77
2022/02/23 01:41:09;;;;;;;6.90;2.75;;;;;;;;;;5063146;28;20201;-79
2022/02/23 01:43:36;;;;;;;16.48;3.70;;;;;;;;;;5064958;28;20520;-76
2022/02/23 01:46:04;;;;;;;14.32;3.20;;;;;;;;;;5065890;28;20214;-78
2022/02/23 01:48:31;;;;;;;6.97;2.33;;;;;;;;;;5054138;28;20666;-78
2022/02/23 01:50:58;;;;;;;7.63;2.60;;;;;;;;;;5054011;28;20206;-77
2022/02/23 01:53:25;;;;;;;13.68;3.75;;;;;;;;;;5069784;28;20190;-78
2022/02/23 01:55:54;;;;;;;16.58;3.35;;;;;;;;;;5070965;28;20225;-78
2022/02/23 01:58:21;;;;;;;5.63;2.70;;;;;;;;;;5056415;28;20284;-76
2022/02/23 02:00:48;;;;;;;8.18;2.00;;;;;;;;;;5051756;28;20199;-78
2022/02/23 02:03:16;;;;;;;10.82;2.97;;;;;;;;;;5052931;28;20202;-79
2022/02/23 02:05:43;;;;;;;9.90;2.58;;;;;;;;;;5052958;28;20589;-78
2022/02/23 02:08:11;;;;;;;13.07;3.35;;;;;;;;;;5058648;28;20199;-78
2022/02/23 02:10:38;;;;;;;7.00;2.95;;;;;;;;;;5054898;28;20296;-76
2022/02/23 02:13:06;;;;;;;7.60;3.05;;;;;;;;;;5053165;28;20203;-77
2022/02/23 02:15:34;;;;;;;7.30;2.92;;;;;;;;;;5069114;28;20232;-78
2022/02/23 02:18:01;;;;;;;7.70;2.47;;;;;;;;;;5069787;28;20198;-77
2022/02/23 02:20:28;;;;;;;7.97;2.40;;;;;;;;;;5072101;28;20206;-78
2022/02/23 02:22:57;;;;;;;7.68;2.42;;;;;;;;;;5070367;28;20560;-77
2022/02/23 02:25:24;;;;;;;11.90;2.83;;;;;;;;;;5072309;28;20244;-79
2022/02/23 02:27:51;;;;;;;10.88;2.40;;;;;;;;;;5061492;28;20302;-78
2022/02/23 02:30:18;;;;;;;9.30;2.40;;;;;;;;;;5053605;28;20202;-78
2022/02/23 02:32:45;;;;;;;8.98;3.10;;;;;;;;;;5068404;28;20201;-78
2022/02/23 02:35:15;;;;;;;8.07;2.33;;;;;;;;;;5069121;28;20574;-78
2022/02/23 02:37:43;;;;;;;7.40;2.50;;;;;;;;;;5070148;28;20206;-78
2022/02/23 02:40:12;;;;;;;10.77;4.72;;;;;;;;;;5070131;28;20220;-77
2022/02/23 02:42:39;;;;;;;14.27;2.67;;;;;;;;;;5069783;28;20654;-77
2022/02/23 02:45:07;;;;;;;6.40;2.30;;;;;;;;;;5069418;28;20226;-77
2022/02/23 02:47:34;;;;;;;6.85;2.13;;;;;;;;;;5061951;28;20207;-79
2022/02/23 02:50:01;;;;;;;10.45;2.58;;;;;;;;;;5066650;28;20217;-78
2022/02/23 02:52:28;;;;;;;5.68;2.47;;;;;;;;;;5067495;28;20214;-79
2022/02/23 02:54:55;;;;;;;9.80;2.50;;;;;;;;;;5069347;28;20210;-80
2022/02/23 02:57:24;;;;;;;9.25;3.33;;;;;;;;;;5071110;28;20221;-78
2022/02/23 02:59:51;;;;;;;11.13;2.92;;;;;;;;;;5070172;28;20676;-79
2022/02/23 03:02:18;;;;;;;7.13;2.70;;;;;;;;;;5066885;28;20221;-78
2022/02/23 03:04:45;;;;;;;13.82;3.00;;;;;;;;;;5065350;28;20229;-78
2022/02/23 03:07:12;;;;;;;10.50;3.30;;;;;;;;;;5069200;28;20201;-79
2022/02/23 03:09:39;;;;;;;15.23;3.45;;;;;;;;;;5069678;28;20565;-77
2022/02/23 03:12:07;;;;;;;13.82;3.05;;;;;;;;;;5070038;28;20204;-79
2022/02/23 03:14:35;;;;;;;8.07;2.80;;;;;;;;;;5070425;28;20218;-79
2022/02/23 03:17:03;;;;;;;8.07;2.90;;;;;;;;;;5065096;28;20238;-78
2022/02/23 03:19:30;;;;;;;7.50;2.80;;;;;;;;;;5071351;28;20202;-79
2022/02/23 03:21:57;;;;;;;8.45;2.30;;;;;;;;;;5062842;28;20202;-78
2022/02/23 03:24:24;;;;;;;4.93;2.08;;;;;;;;;;5060593;28;20233;-78
2022/02/23 03:26:51;;;;;;;14.05;3.17;;;;;;;;;;5065924;28;20209;-78
2022/02/23 03:29:18;;;;;;;6.65;2.50;;;;;;;;;;5063799;28;20188;-80
2022/02/23 03:31:47;;;;;;;6.28;2.33;;;;;;;;;;5070576;28;20280;-77
2022/02/23 03:34:16;;;;;;;7.70;2.55;;;;;;;;;;5070231;28;20228;-78
2022/02/23 03:36:43;;;;;;;7.70;2.45;;;;;;;;;;5069503;28;20641;-80
2022/02/23 03:39:10;;;;;;;11.43;2.95;;;;;;;;;;5069896;28;20209;-78
2022/02/23 03:41:38;;;;;;;12.65;3.60;;;;;;;;;;5064659;28;20209;-79
2022/02/23 03:44:05;;;;;;;11.90;3.92;;;;;;;;;;5065613;28;20205;-79
2022/02/23 03:46:32;;;;;;;9.73;3.28;;;;;;;;;;5069201;28;20194;-78
2022/02/23 03:49:00;;;;;;;7.55;3.20;;;;;;;;;;5070534;28;20600;-79
2022/02/23 03:51:27;;;;;;;14.98;3.58;;;;;;;;;;5068949;28;20232;-80
2022/02/23 03:53:55;;;;;;;8.77;2.97;;;;;;;;;;5069751;28;20198;-77
2022/02/23 03:59:06;;;;;;;8.50;3.15;;;;;;;;;;5051889;28;20190;-78
2022/02/23 04:01:34;;;;;;;11.25;3.53;;;;;;;;;;5052197;28;20194;-80
2022/02/23 04:04:02;;;;;;;5.45;3.45;;;;;;;;;;5065815;28;20706;-79
2022/02/23 04:06:30;;;;;;;12.00;3.65;;;;;;;;;;5066560;28;20209;-79
2022/02/23 04:08:57;;;;;;;7.15;3.88;;;;;;;;;;5066713;28;20213;-77
2022/02/23 04:11:25;;;;;;;10.35;3.60;;;;;;;;;;5050541;28;20209;-79
2022/02/23 04:13:52;;;;;;;11.85;3.95;;;;;;;;;;5050927;28;20205;-79
2022/02/23 04:16:19;;;;;;;12.73;4.40;;;;;;;;;;5051254;28;20710;-78
2022/02/23 04:18:46;;;;;;;13.25;3.63;;;;;;;;;;5051080;28;20660;-79
2022/02/23 04:21:15;;;;;;;15.25;3.35;;;;;;;;;;5052568;28;20294;-80
2022/02/23 04:23:42;;;;;;;16.67;3.88;;;;;;;;;;5052602;28;20233;-78
2022/02/23 04:26:09;;;;;;;11.55;3.50;;;;;;;;;;5065643;28;20221;-79
2022/02/23 04:28:37;;;;;;;10.75;4.20;;;;;;;;;;5066096;28;20194;-80
2022/02/23 04:31:04;;;;;;;11.77;4.05;;;;;;;;;;5062321;28;20202;-77
2022/02/23 04:33:31;;;;;;;12.90;4.65;;;;;;;;;;5049457;28;20195;-78
2022/02/23 04:35:59;;;;;;;13.57;3.30;;;;;;;;;;5048333;28;20253;-77
2022/02/23 04:38:27;;;;;;;9.38;4.60;;;;;;;;;;5050221;28;20194;-78
2022/02/23 04:40:54;;;;;;;15.77;3.40;;;;;;;;;;5064095;28;20583;-77
2022/02/23 04:43:22;;;;;;;13.70;4.00;;;;;;;;;;5062439;28;20225;-78
2022/02/23 04:45:50;;;;;;;8.30;3.65;;;;;;;;;;5065779;28;20697;-77
2022/02/23 04:48:17;;;;;;;10.38;4.50;;;;;;;;;;5058376;28;20199;-80
2022/02/23 04:50:45;;;;;;;10.73;4.18;;;;;;;;;;5052155;28;20192;-78
2022/02/23 04:53:12;;;;;;;14.65;4.50;;;;;;;;;;5066743;28;20194;-78
2022/02/23 04:55:41;;;;;;;10.60;3.45;;;;;;;;;;5070038;28;20220;-78
2022/02/23 04:58:08;;;;;;;14.13;4.03;;;;;;;;;;5067714;28;20233;-78
2022/02/23 05:00:36;;;;;;;10.82;3.55;;;;;;;;;;5059256;28;20193;-78
2022/02/23 05:03:04;;;;;;;11.73;3.80;;;;;;;;;;5070491;28;20251;-79
2022/02/23 05:05:31;;;;;;;9.98;3.10;;;;;;;;;;5071174;28;20604;-79
2022/02/23 05:07:58;;;;;;;10.18;3.60;;;;;;;;;;5073764;28;20288;-78
2022/02/23 05:10:26;;;;;;;13.45;4.40;;;;;;;;;;5073931;28;20194;-78
2022/02/23 05:12:55;;;;;;;7.63;3.80;;;;;;;;;;5072022;28;20243;-79
2022/02/23 05:15:22;;;;;;;9.57;2.70;;;;;;;;;;5074022;28;20229;-79
2022/02/23 05:17:49;;;;;;;11.95;3.65;;;;;;;;;;5067322;28;20229;-78
2022/02/23 05:20:16;;;;;;;12.68;3.83;;;;;;;;;;5071471;28;20202;-78
2022/02/23 05:22:45;;;;;;;15.48;3.80;;;;;;;;;;5071479;28;20205;-81
2022/02/23 05:25:13;;;;;;;11.45;3.80;;;;;;;;;;5072367;28;20545;-79
2022/02/23 05:27:40;;;;;;;14.15;3.80;;;;;;;;;;5059152;28;20644;-78
2022/02/23 05:30:09;;;;;;;9.98;3.95;;;;;;;;;;5066448;28;20202;-80
2022/02/23 05:32:37;;;;;;;10.30;4.00;;;;;;;;;;5073796;28;20198;-79
2022/02/23 05:35:04;;;;;;;13.25;4.43;;;;;;;;;;5060549;28;20249;-77
2022/02/23 05:37:31;;;;;;;8.43;3.80;;;;;;;;;;5054442;28;20218;-79
2022/02/23 05:39:59;;;;;;;17.58;4.70;;;;;;;;;;5058469;28;20198;-78
2022/02/23 05:42:26;;;;;;;11.50;4.28;;;;;;;;;;5068347;28;20206;-79
2022/02/23 05:44:53;;;;;;;12.85;5.53;;;;;;;;;;5063165;28;20229;-79
2022/02/23 05:47:22;;;;;;;14.43;4.78;;;;;;;;;;5052587;28;20195;-79
2022/02/23 05:49:50;;;;;;;12.73;4.80;;;;;;;;;;5053154;28;20722;-78
2022/02/23 05:52:20;;;;;;;8.98;3.88;;;;;;;;;;5052424;28;20199;-79
2022/02/23 05:54:48;;;;;;;13.48;4.55;;;;;;;;;;5066429;28;20213;-79
2022/02/23 05:57:15;;;;;;;21.92;6.75;;;;;;;;;;5063452;28;20264;-80
2022/02/23 05:59:42;;;;;;;13.73;5.13;;;;;;;;;;5071009;28;20375;-80
2022/02/23 06:02:10;;;;;;;10.18;5.18;;;;;;;;;;5071525;28;20621;-78
2022/02/23 06:04:38;;;;;;;13.32;4.10;;;;;;;;;;5053248;28;20221;-79
2022/02/23 06:07:06;;;;;;;10.75;4.50;;;;;;;;;;5051529;28;20216;-77
2022/02/23 06:09:33;;;;;;;11.18;4.85;;;;;;;;;;5068078;28;20201;-77
2022/02/23 06:12:01;;;;;;;10.95;4.20;;;;;;;;;;5071307;28;20642;-78
2022/02/23 06:14:30;;;;;;;11.80;4.47;;;;;;;;;;5069753;28;20229;-78
2022/02/23 06:16:57;;;;;;;10.85;4.18;;;;;;;;;;5074790;28;20218;-77
2022/02/23 06:19:24;;;;;;;10.48;4.20;;;;;;;;;;5074413;28;20206;-79
2022/02/23 06:21:52;;;;;;;8.52;4.05;;;;;;;;;;5070343;28;20201;-78
2022/02/23 06:24:20;;;;;;;10.98;4.53;;;;;;;;;;5069337;28;20233;-78
2022/02/23 06:26:47;;;;;;;10.82;4.15;;;;;;;;;;5071864;28;20208;-78
2022/02/23 06:29:14;;;;;;;22.60;4.68;;;;;;;;;;5050485;28;20193;-77
2022/02/23 06:31:43;;;;;;;9.55;4.47;;;;;;;;;;5052745;28;20221;-80
2022/02/23 06:34:10;;;;;;;8.93;4.00;;;;;;;;;;5052575;28;20210;-80
2022/02/23 06:36:37;;;;;;;10.95;4.55;;;;;;;;;;5059996;28;20522;-81
2022/02/23 06:39:05;;;;;;;10.75;5.00;;;;;;;;;;5074498;28;20198;-79
2022/02/23 06:41:33;;;;;;;10.77;5.97;;;;;;;;;;5073950;28;20647;-80
2022/02/23 06:44:00;;;;;;;18.15;5.10;;;;;;;;;;5068450;28;20206;-78
2022/02/23 06:46:27;;;;;;;17.25;6.40;;;;;;;;;;5066279;28;20271;-79
2022/02/23 06:48:54;;;;;;;11.07;5.10;;;;;;;;;;5071271;28;20563;-77
2022/02/23 06:51:21;;;;;;;18.55;5.95;;;;;;;;;;5071810;28;20204;-79
2022/02/23 06:53:49;;;;;;;21.92;6.28;;;;;;;;;;5071297;28;20194;-82
2022/02/23 06:58:59;;;;;;;15.18;6.75;;;;;;;;;;5008241;28;20258;-77
2022/02/23 07:01:26;;;;;;;21.65;7.75;;;;;;;;;;5026124;28;20221;-81
2022/02/23 07:03:54;;;;;;;14.55;6.18;;;;;;;;;;5026708;28;20286;-78
2022/02/23 07:06:21;;;;;;;15.60;6.15;;;;;;;;;;5028153;28;20234;-82
2022/02/23 07:08:49;;;;;;;13.40;5.22;;;;;;;;;;5009839;28;20227;-78
2022/02/23 07:11:18;;;;;;;11.50;6.20;;;;;;;;;;5008015;28;20581;-79
2022/02/23 07:13:45;;;;;;;9.48;4.70;;;;;;;;;;5009193;28;20200;-81
2022/02/23 07:16:12;;;;;;;12.35;4.82;;;;;;;;;;5021337;28;20211;-79
2022/02/23 07:18:40;;;;;;;10.45;3.42;;;;;;;;;;5026870;28;20234;-83
2022/02/23 07:21:07;;;;;;;12.02;4.40;;;;;;;;;;5028289;28;20199;-78
2022/02/23 07:23:34;;;;;;;8.15;3.38;;;;;;;;;;5009015;28;20210;-79
2022/02/23 07:26:01;;;;;;;10.30;4.72;;;;;;;;;;5008163;28;20223;-79
2022/02/23 07:28:30;;;;;;;11.25;3.42;;;;;;;;;;5009009;28;20239;-79
2022/02/23 07:30:57;;;;;;;10.52;3.92;;;;;;;;;;5043997;28;20198;-78
2022/02/23 07:33:24;;;;;;;9.82;3.75;;;;;;;;;;5053327;28;20194;-78
2022/02/23 07:35:52;;;;;;;11.93;4.07;;;;;;;;;;5067302;28;20214;-78
2022/02/23 07:38:19;;;;;;;10.35;3.58;;;;;;;;;;5068009;28;20221;-79
2022/02/23 07:40:47;;;;;;;9.25;3.67;;;;;;;;;;5068722;28;20212;-81
2022/02/23 07:43:14;;;;;;;9.68;3.30;;;;;;;;;;5070709;28;20198;-80
2022/02/23 07:45:42;;;;;;;6.97;3.42;;;;;;;;;;5069027;28;20717;-77
2022/02/23 07:48:10;;;;;;;7.65;3.83;;;;;;;;;;5067492;28;20232;-78
2022/02/23 07:50:38;;;;;;;7.07;3.40;;;;;;;;;;5069752;28;20202;-79
2022/02/23 07:53:05;;;;;;;9.13;2.97;;;;;;;;;;5060359;28;20194;-78
2022/02/23 07:55:32;;;;;;;8.85;3.22;;;;;;;;;;5072103;28;20224;-78
2022/02/23 07:58:03;;;;;;;8.02;4.30;;;;;;;;;;5071703;28;20240;-76
2022/02/23 08:00:31;;;;;;;7.65;4.05;;;;;;;;;;5069017;28;20320;-78
2022/02/23 08:02:59;;;;;;;15.80;4.63;;;;;;;;;;5067071;28;20190;-77
2022/02/23 08:05:26;;;;;;;8.32;4.15;;;;;;;;;;5054056;28;20272;-77
2022/02/23 08:07:55;;;;;;;11.38;4.50;;;;;;;;;;5054284;28;20195;-78
2022/02/23 08:10:22;;;;;;;11.13;5.47;;;;;;;;;;5050198;28;20705;-77
2022/02/23 08:12:53;;;;;;;11.52;4.53;;;;;;;;;;5050771;28;20441;-77
2022/02/23 08:20:44;;;;;;;12.90;5.57;;;;;;;;;;5066154;28;20541;-77
2022/02/23 08:23:11;;;;;;;10.90;3.80;;;;;;;;;;5067381;28;20457;-77
2022/02/23 08:25:39;;;;;;;8.53;4.20;;;;;;;;;;5070106;28;20526;-77
2022/02/23 08:28:06;;;;;;;12.13;5.00;;;;;;;;;;5070004;28;20463;-77
2022/02/23 08:30:34;;;;;;;12.50;4.90;;;;;;;;;;5070282;28;20444;-77
2022/02/23 08:33:03;;;;;;;9.93;4.43;;;;;;;;;;5054801;28;20469;-78
2022/02/23 08:35:31;;;;;;;10.40;4.50;;;;;;;;;;5059750;28;20467;-77
2022/02/23 08:37:58;;;;;;;16.80;4.80;;;;;;;;;;5067825;28;20471;-76
2022/02/23 08:40:26;;;;;;;11.73;4.30;;;;;;;;;;5067274;28;20975;-76
2022/02/23 08:42:54;;;;;;;7.30;4.00;;;;;;;;;;5069364;28;20851;-76
2022/02/23 08:45:21;;;;;;;8.73;4.03;;;;;;;;;;5064846;28;20560;-75
2022/02/23 08:47:48;;;;;;;7.87;4.60;;;;;;;;;;5068145;28;20773;-80
2022/02/23 08:50:17;;;;;;;9.43;4.13;;;;;;;;;;5064994;28;20722;-77
2022/02/23 08:52:44;;;;;;;13.37;4.13;;;;;;;;;;5052115;28;20460;-77
2022/02/23 08:55:12;;;;;;;11.60;4.47;;;;;;;;;;5064207;28;20456;-80
2022/02/23 08:57:39;;;;;;;9.17;4.30;;;;;;;;;;5064418;28;20479;-80
2022/02/23 09:00:08;;;;;;;7.23;4.10;;;;;;;;;;5051135;28;20433;-81
2022/02/23 09:02:35;;;;;;;9.90;4.90;;;;;;;;;;5050202;28;20445;-81
2022/02/23 09:05:03;;;;;;;17.90;5.13;;;;;;;;;;5063262;28;20871;-82
2022/02/23 09:07:31;;;;;;;13.63;4.50;;;;;;;;;;5065629;28;20439;-82
2022/02/23 09:09:58;;;;;;;17.93;5.70;;;;;;;;;;5049752;28;20519;-78
2022/02/23 09:12:25;;;;;;;9.83;4.60;;;;;;;;;;5065585;28;20795;-78
2022/02/23 09:14:53;;;;;;;19.03;5.60;;;;;;;;;;5067374;28;21017;-80
2022/02/23 09:17:21;;;;;;;10.70;4.60;;;;;;;;;;5066412;28;20499;-77
2022/02/23 09:19:50;;;;;;;12.37;6.43;;;;;;;;;;5068481;28;20448;-79
2022/02/23 09:22:17;;;;;;;13.50;5.10;;;;;;;;;;5059288;28;20456;-79
2022/02/23 09:24:46;;;;;;;14.03;5.87;;;;;;;;;;5069303;28;20474;-82
2022/02/23 09:27:14;;;;;;;10.33;5.40;;;;;;;;;;5069565;28;20933;-82
2022/02/23 09:29:41;;;;;;;8.50;4.40;;;;;;;;;;5068214;28;20917;-79
2022/02/23 09:32:09;;;;;;;14.47;5.33;;;;;;;;;;5065432;28;20452;-80
2022/02/23 09:34:36;;;;;;;15.03;5.50;;;;;;;;;;5053824;28;20507;-79
2022/02/23 09:37:03;;;;;;;8.40;4.90;;;;;;;;;;5069576;28;20444;-78
2022/02/23 09:39:30;;;;;;;11.90;5.07;;;;;;;;;;5048890;28;20484;-79
2022/02/23 09:41:59;;;;;;;9.60;4.93;;;;;;;;;;5050303;28;20448;-80
2022/02/23 09:44:27;;;;;;;11.07;4.80;;;;;;;;;;5048686;28;20491;-79
2022/02/23 09:46:54;;;;;;;19.93;4.10;;;;;;;;;;5054049;28;20448;-79
2022/02/23 09:49:21;;;;;;;14.60;4.57;;;;;;;;;;5059930;28;20453;-80
2022/02/23 09:51:48;;;;;;;11.37;4.20;;;;;;;;;;5065508;28;20440;-77
2022/02/23 09:54:16;;;;;;;11.87;4.00;;;;;;;;;;5070000;28;20473;-81
2022/02/23 09:56:45;;;;;;;8.00;3.40;;;;;;;;;;5072172;28;20856;-81
2022/02/23 09:59:14;;;;;;;17.87;4.30;;;;;;;;;;5054141;28;20500;-78
2022/02/23 10:01:42;;;;;;;8.80;4.20;;;;;;;;;;5051551;28;20464;-78
2022/02/23 10:04:09;;;;;;;6.90;3.60;;;;;;;;;;5052224;28;20495;-79
2022/02/23 10:06:39;;;;;;;11.70;3.40;;;;;;;;;;5056655;28;20456;-79
2022/02/23 10:09:06;;;;;;;10.80;4.77;;;;;;;;;;5052898;28;20513;-80
2022/02/23 10:11:34;;;;;;;12.97;4.90;;;;;;;;;;5056122;28;20551;-80
2022/02/23 10:14:02;;;;;;;14.50;4.70;;;;;;;;;;5071721;28;21475;-77
2022/02/23 10:16:34;;;;;;;12.77;3.63;;;;;;;;;;5065566;28;20983;-79
2022/02/23 10:19:09;;;;;;;7.13;3.77;;;;;;;;;;5060935;28;20503;-79
2022/02/23 10:21:49;;;;;;;7.63;3.47;;;;;;;;;;5050531;28;20790;-79
2022/02/23 10:24:20;;;;;;;9.27;3.53;;;;;;;;;;5065130;28;20480;-77
2022/02/23 10:26:54;;;;;;;7.20;3.10;;;;;;;;;;5069712;28;20440;-79
2022/02/23 10:29:26;;;;;;;7.60;3.33;;;;;;;;;;5050185;28;20559;-79
2022/02/23 10:31:55;;;;;;;11.33;3.73;;;;;;;;;;5056601;28;20433;-79
2022/02/23 10:34:24;;;;;;;8.63;3.23;;;;;;;;;;5068454;28;20456;-78
2022/02/23 10:37:01;;;;;;;11.40;3.30;;;;;;;;;;5060852;28;20523;-79
2022/02/23 10:39:43;;;;;;;6.97;3.07;;;;;;;;;;5069366;28;20476;-79
2022/02/23 10:42:11;;;;;;;8.73;3.57;;;;;;;;;;5051769;28;20496;-81
2022/02/23 10:44:42;;;;;;;11.40;3.50;;;;;;;;;;5052219;28;20461;-78
2022/02/23 10:47:14;;;;;;;8.63;3.20;;;;;;;;;;5066267;28;20433;-81
2022/02/23 10:49:41;;;;;;;9.90;3.10;;;;;;;;;;5058927;28;20941;-80
2022/02/23 10:52:10;;;;;;;9.80;2.80;;;;;;;;;;5069311;28;20436;-79
2022/02/23 10:54:37;;;;;;;6.43;2.90;;;;;;;;;;5064629;28;21035;-77
2022/02/23 10:57:19;;;;;;;5.83;2.20;;;;;;;;;;5051019;28;20463;-81
2022/02/23 10:59:47;;;;;;;5.30;2.03;;;;;;;;;;5070343;28;20471;-80
2022/02/23 11:02:15;;;;;;;4.60;2.30;;;;;;;;;;5087470;28;20917;-79
2022/02/23 11:04:43;;;;;;;5.23;2.30;;;;;;;;;;5079032;28;20479;-78
2022/02/23 11:07:11;;;;;;;5.13;1.87;;;;;;;;;;5066640;28;20470;-77
2022/02/23 11:09:38;;;;;;;5.50;2.20;;;;;;;;;;5067291;28;20457;-79
2022/02/23 11:12:06;;;;;;;5.70;2.47;;;;;;;;;;5069437;28;20452;-78
2022/02/23 11:14:33;;;;;;;6.30;2.40;;;;;;;;;;5068717;28;20482;-77
2022/02/23 11:17:01;;;;;;;6.03;2.07;;;;;;;;;;5069247;28;20456;-79
2022/02/23 11:19:31;;;;;;;7.77;2.20;;;;;;;;;;5066175;28;20479;-79
2022/02/23 11:22:02;;;;;;;8.90;2.20;;;;;;;;;;5069674;28;20452;-77
2022/02/23 11:24:29;;;;;;;9.13;2.87;;;;;;;;;;5056769;28;20519;-77
2022/02/23 11:26:59;;;;;;;5.53;2.90;;;;;;;;;;5064802;28;20471;-76
2022/02/23 11:29:30;;;;;;;6.83;2.87;;;;;;;;;;5066351;28;20981;-78
2022/02/23 11:31:57;;;;;;;5.13;2.90;;;;;;;;;;5060858;28;20536;-79
2022/02/23 11:34:26;;;;;;;5.27;2.33;;;;;;;;;;5053046;28;20470;-79
2022/02/23 11:36:55;;;;;;;8.60;3.07;;;;;;;;;;5068862;28;20468;-79
2022/02/23 11:39:23;;;;;;;7.03;2.80;;;;;;;;;;5069972;28;20484;-79
2022/02/23 11:41:55;;;;;;;9.43;3.20;;;;;;;;;;5068723;28;20463;-77
2022/02/23 11:44:24;;;;;;;5.10;2.53;;;;;;;;;;5067133;28;20464;-77
2022/02/23 11:47:01;;;;;;;6.90;2.80;;;;;;;;;;5060788;28;20480;-80
2022/02/23 11:49:29;;;;;;;8.10;2.93;;;;;;;;;;5059092;28;20477;-81
2022/02/23 11:52:11;;;;;;;6.13;2.40;;;;;;;;;;5049536;28;20444;-79
2022/02/23 11:57:49;;;;;;;7.70;2.50;;;;;;;;;;5063959;28;20451;-78
2022/02/23 12:00:31;;;;;;;15.17;2.20;;;;;;;;;;5076096;28;20533;-78
2022/02/23 12:03:01;;;;;;;8.90;3.30;;;;;;;;;;5060250;28;20433;-78
2022/02/23 12:05:36;;;;;;;5.73;2.30;;;;;;;;;;5061950;28;20475;-80
2022/02/23 12:08:03;;;;;;;7.00;2.17;;;;;;;;;;5066512;28;20440;-80
2022/02/23 12:10:32;;;;;;;5.53;2.07;;;;;;;;;;5051710;28;20969;-78
2022/02/23 12:12:59;;;;;;;6.57;1.97;;;;;;;;;;5050060;28;20492;-78
2022/02/23 12:15:28;;;;;;;7.43;2.30;;;;;;;;;;5056589;28;20480;-80
2022/02/23 12:17:59;;;;;;;7.03;2.13;;;;;;;;;;5051361;28;20437;-81
2022/02/23 12:20:41;;;;;;;6.20;1.80;;;;;;;;;;5048383;28;20489;-80
2022/02/23 12:23:10;;;;;;;6.90;2.20;;;;;;;;;;5051466;28;20457;-82
2022/02/23 12:25:47;;;;;;;8.03;1.87;;;;;;;;;;5050290;28;20832;-80
2022/02/23 12:28:15;;;;;;;5.40;2.17;;;;;;;;;;5065686;28;20507;-81
2022/02/23 12:30:42;;;;;;;3.97;1.87;;;;;;;;;;5064624;28;20459;-81
2022/02/23 12:33:14;;;;;;;5.87;2.40;;;;;;;;;;5068492;28;20448;-80
2022/02/23 12:35:41;;;;;;;5.23;2.37;;;;;;;;;;5057341;28;20472;-80
2022/02/23 12:38:10;;;;;;;6.10;2.77;;;;;;;;;;5065446;28;20463;-81
2022/02/23 12:40:38;;;;;;;5.57;2.80;;;;;;;;;;5067780;28;20503;-80
2022/02/23 12:43:05;;;;;;;4.77;2.30;;;;;;;;;;5069220;28;20471;-80
2022/02/23 12:45:33;;;;;;;5.27;2.20;;;;;;;;;;5066679;28;20515;-80
2022/02/23 12:48:01;;;;;;;6.73;3.10;;;;;;;;;;5065628;28;20428;-79
2022/02/23 12:50:29;;;;;;;5.83;3.17;;;;;;;;;;5048009;28;20540;-81
2022/02/23 12:52:56;;;;;;;6.80;3.60;;;;;;;;;;5051212;28;20448;-81
2022/02/23 12:55:25;;;;;;;14.23;3.70;;;;;;;;;;5049420;28;20464;-80
2022/02/23 12:57:53;;;;;;;5.40;2.30;;;;;;;;;;5054163;28;20448;-81
2022/02/23 13:00:23;;;;;;;4.23;2.13;;;;;;;;;;5058341;28;20493;-81
2022/02/23 13:02:50;;;;;;;8.27;2.80;;;;;;;;;;5050054;28;20499;-82
2022/02/23 13:05:17;;;;;;;10.67;2.13;;;;;;;;;;5051117;28;20471;-82
2022/02/23 13:07:44;;;;;;;4.50;2.67;;;;;;;;;;5063521;28;20549;-78
2022/02/23 13:10:12;;;;;;;7.53;3.07;;;;;;;;;;5066393;28;20437;-81
2022/02/23 13:12:40;;;;;;;5.87;2.70;;;;;;;;;;5067369;28;20821;-79
2022/02/23 13:15:08;;;;;;;3.57;1.97;;;;;;;;;;5068015;28;20476;-80
2022/02/23 13:17:35;;;;;;;4.43;2.40;;;;;;;;;;5066692;28;20492;-80
2022/02/23 13:20:02;;;;;;;5.60;2.90;;;;;;;;;;5061458;28;20835;-79
2022/02/23 13:22:31;;;;;;;5.40;2.43;;;;;;;;;;5064545;28;20488;-79
2022/02/23 13:24:59;;;;;;;4.30;2.47;;;;;;;;;;5053886;28;20485;-82
2022/02/23 13:27:27;;;;;;;3.10;2.03;;;;;;;;;;5055077;28;20487;-83
2022/02/23 13:29:57;;;;;;;10.87;3.53;;;;;;;;;;5067066;28;20436;-84
2022/02/23 13:32:28;;;;;;;5.47;2.67;;;;;;;;;;5070186;28;20440;-81
2022/02/23 13:34:57;;;;;;;8.60;5.13;;;;;;;;;;5062602;28;20481;-82
2022/02/23 13:37:25;;;;;;;6.23;2.77;;;;;;;;;;5068180;28;20502;-79
2022/02/23 13:39:55;;;;;;;6.73;2.13;;;;;;;;;;5072953;28;20537;-79
2022/02/23 13:42:33;;;;;;;4.00;2.10;;;;;;;;;;5073879;28;21161;-81
2022/02/23 13:45:15;;;;;;;5.70;2.43;;;;;;;;;;5071048;28;20570;-79
2022/02/23 13:47:43;;;;;;;18.63;3.73;;;;;;;;;;5072511;28;20546;-79
2022/02/23 13:50:11;;;;;;;17.83;3.63;;;;;;;;;;5067765;28;20432;-76
2022/02/23 13:52:43;;;;;;;107.07;12.80;;;;;;;;;;5071584;28;20892;-78
2022/02/23 13:55:12;;;;;;;31.20;5.93;;;;;;;;;;5071071;28;20841;-78
2022/02/23 13:57:40;;;;;;;13.87;3.57;;;;;;;;;;5070360;28;20466;-79
2022/02/23 14:00:09;;;;;;;9.40;2.80;;;;;;;;;;5059580;28;20480;-78
2022/02/23 14:02:38;;;;;;;19.07;4.37;;;;;;;;;;5053147;28;20453;-80
2022/02/23 14:05:08;;;;;;;9.97;3.70;;;;;;;;;;5051916;28;20500;-79
2022/02/23 14:07:36;;;;;;;8.80;3.40;;;;;;;;;;5053691;28;20456;-80
2022/02/23 14:10:05;;;;;;;6.33;2.53;;;;;;;;;;5056523;28;20461;-82
2022/02/23 14:12:32;;;;;;;4.57;2.57;;;;;;;;;;5067481;28;20948;-82
2022/02/23 14:15:01;;;;;;;7.90;2.37;;;;;;;;;;5065912;28;20483;-80
2022/02/23 14:17:30;;;;;;;7.80;2.83;;;;;;;;;;5057880;28;20984;-78
2022/02/23 14:20:11;;;;;;;6.53;2.53;;;;;;;;;;5060095;28;21003;-80
2022/02/23 14:22:41;;;;;;;6.70;2.10;;;;;;;;;;5051649;28;20468;-80
2022/02/23 14:25:09;;;;;;;6.87;2.67;;;;;;;;;;5062747;28;20847;-82
2022/02/23 14:27:39;;;;;;;4.87;1.90;;;;;;;;;;5070730;28;20452;-81
2022/02/23 14:30:09;;;;;;;7.13;2.10;;;;;;;;;;5071427;28;20922;-79
2022/02/23 14:32:39;;;;;;;7.60;2.33;;;;;;;;;;5073884;28;20435;-79
2022/02/23 14:35:11;;;;;;;5.00;2.10;;;;;;;;;;5068852;28;20456;-79
2022/02/23 14:37:40;;;;;;;6.20;2.00;;;;;;;;;;5061979;28;20463;-79
2022/02/23 14:40:08;;;;;;;9.30;3.20;;;;;;;;;;5055947;28;20500;-80
2022/02/23 14:42:36;;;;;;;3.83;2.27;;;;;;;;;;5070883;28;20436;-79
2022/02/23 14:45:04;;;;;;;5.50;2.13;;;;;;;;;;5072232;28;20467;-77
2022/02/23 14:47:31;;;;;;;5.93;2.00;;;;;;;;;;5069830;28;20464;-82
2022/02/23 14:49:58;;;;;;;16.17;2.40;;;;;;;;;;5063535;28;20459;-77
2022/02/23 14:52:27;;;;;;;12.73;2.87;;;;;;;;;;5066624;28;20530;-79
2022/02/23 14:54:57;;;;;;;4.47;1.80;;;;;;;;;;5069560;28;20456;-78